NCAR-RAP Real-Time Weather Data

Output produced by METARs form (17 October 2018  16:24 UTC)
found at http://weather.rap.ucar.edu/surface/
 
RJOR 171200Z 16006KT 9999 FEW030 SCT090 BKN/// 15/15 Q1014
RJOR 171100Z 19004KT 130V210 9999 FEW020 SCT040 BKN050 16/15 Q1014
RJOR 171000Z VRB02KT 9999 -SHRA FEW020 SCT040 BKN060 16/15 Q1014
RJOR 170900Z 04011KT 9999 -SHRA FEW015 SCT030 BKN060 16/15 Q1014
RJOR 170800Z 03013KT 9999 VCSH FEW020 SCT060 BKN090 18/14 Q1013
RJOR 170700Z 09007KT 9999 FEW020 SCT080 BKN100 18/13 Q1013
RJOR 170600Z 07005KT 040V110 9999 FEW015 BKN100 18/14 Q1012
RJOR 170500Z 06006KT 030V090 9999 -SHRA FEW015 SCT045 BKN070 18/14 Q1012
RJOR 170400Z 03016KT 9999 -SHRA FEW020 SCT045 BKN070 18/12 Q1012
RJOR 170300Z VRB02KT 9999 FEW020 SCT070 BKN100 19/14 Q1012
RJOR 170200Z VRB01KT 9999 FEW005 SCT045 BKN080 16/14 Q1013
RJOR 170136Z VRB04KT 9999 -SHRA FEW015 SCT040 BKN070 16/15 Q1013 RMK 1CU015 3CU040 5AC070 A2994
RJOR 170125Z 29003KT 260V360 8000 SHRA FEW015 SCT040 BKN070 16/15 Q1013 RMK 1CU015 3CU040 5AC070 A2994
RJOR 170100Z 33009KT 8000 -SHRA FEW015 SCT040 BKN070 17/15 Q1013
RJOR 170000Z VRB02KT 9999 FEW025 SCT045 BKN080 17/14 Q1013
RJOR 162300Z 15004KT 110V180 9999 FEW025 SCT070 BKN100 16/14 Q1013
RJOR 162200Z 13006KT 9999 FEW025 SCT070 BKN120 15/14 Q1012
RJOR 162130Z 15006KT 9999 FEW025 SCT070 BKN120 14/14 Q1012
RJOR 162110Z 15005KT 9999 FEW025 SCT070 BKN120 15/14 Q1012 RMK 1CU025 3AC070 5AC120 A2989
RJOR 161200Z 20005KT 9999 FEW004 SCT035 BKN070 16/15 Q1012
RJOR 161100Z 20006KT 9999 -SHRA FEW015 SCT030 BKN040 17/15 Q1012
RJOR 161000Z 03008KT 9999 FEW025 SCT035 BKN050 19/13 Q1012
RJOR 160900Z 02011KT 9999 FEW025 SCT035 BKN060 20/13 Q1012
RJOR 160800Z 03008KT 9999 FEW025 SCT035 BKN150 19/12 Q1012
RJOR 160700Z 02006KT 9999 FEW030 SCT170 BKN/// 20/12 Q1012
RJOR 160600Z 36007KT 9999 FEW035 BKN/// 21/12 Q1012
RJOR 160500Z 36007KT 9999 FEW040 BKN/// 21/13 Q1013
RJOR 160400Z 33007KT 9999 FEW040 21/14 Q1013
RJOR 160300Z 33007KT 9999 FEW035 SCT/// 21/13 Q1014
RJOR 160200Z 31005KT 9999 FEW030 SCT/// 21/14 Q1014
RJOR 160100Z VRB02KT 9999 FEW030 BKN/// 19/12 Q1015
RJOR 160000Z 14007KT 9999 FEW030 BKN/// 16/12 Q1016
RJOR 152300Z 14009KT 9999 FEW030 BKN/// 15/12 Q1016
RJOR 152200Z 13008KT 9999 FEW030 BKN/// 14/12 Q1016
RJOR 152130Z 14008KT 9999 FEW025 BKN/// 14/12 Q1015
RJOR 152110Z 14008KT 9999 FEW025 BKN/// 14/12 Q1015 RMK 1CU025 A3000
RJOR 151200Z 16006KT 9999 FEW020 SCT050 BKN060 17/13 Q1017
RJOR 151100Z 17005KT 9999 FEW020 SCT050 BKN060 17/15 Q1017
RJOR 151000Z 19005KT 9999 FEW020 SCT030 BKN050 18/14 Q1017
RJOR 150900Z 24004KT 210V280 9999 FEW020 SCT030 BKN050 19/13 Q1016
RJOR 150800Z 30009KT 9999 FEW020 SCT035 BKN060 20/12 Q1016
RJOR 150700Z 29010KT 9999 FEW020 BKN035 20/13 Q1016
RJOR 150600Z 30012KT 9999 FEW025 BKN040 21/13 Q1016
RJOR 150500Z 29015KT 9999 FEW030 SCT045 22/13 Q1016